createdAt,value
2023-09-19T00:01:24.899Z,1.65
2023-09-19T00:03:51.450Z,2.38
2023-09-19T00:06:18.924Z,1.35
2023-09-19T00:08:45.302Z,1.50
2023-09-19T00:11:11.719Z,1.50
2023-09-19T00:13:38.416Z,1.30
2023-09-19T00:16:12.126Z,1.40
2023-09-19T00:18:39.260Z,1.20
2023-09-19T00:21:05.637Z,1.30
2023-09-19T00:23:32.151Z,1.10
2023-09-19T00:26:01.893Z,1.20
2023-09-19T00:28:28.552Z,1.10
2023-09-19T00:30:55.062Z,1.90
2023-09-19T00:33:22.113Z,1.20
2023-09-19T00:35:49.908Z,1.63
2023-09-19T00:38:16.293Z,1.40
2023-09-19T00:40:45.765Z,1.05
2023-09-19T00:43:12.256Z,1.00
2023-09-19T00:45:39.315Z,2.30
2023-09-19T00:48:06.019Z,1.30
2023-09-19T00:50:32.833Z,0.95
2023-09-19T00:52:59.500Z,0.85
2023-09-19T00:55:27.044Z,1.10
2023-09-19T00:57:53.616Z,1.20
2023-09-19T01:00:20.025Z,0.90
2023-09-19T01:02:47.224Z,1.00
2023-09-19T01:05:14.065Z,1.00
2023-09-19T01:07:40.919Z,1.00
2023-09-19T01:10:09.145Z,1.20
2023-09-19T01:12:43.059Z,1.10
2023-09-19T01:15:37.534Z,0.90
2023-09-19T01:18:29.895Z,0.90
2023-09-19T01:21:12.424Z,1.00
2023-09-19T01:24:06.758Z,0.80
2023-09-19T01:26:51.395Z,0.93
2023-09-19T01:29:32.977Z,0.98
2023-09-19T01:32:04.393Z,0.75
2023-09-19T01:34:57.490Z,0.70
2023-09-19T01:37:23.875Z,0.80
2023-09-19T01:39:53.381Z,0.80
2023-09-19T01:42:34.472Z,0.90
2023-09-19T01:45:08.559Z,0.80
2023-09-19T01:47:37.660Z,1.00
2023-09-19T01:50:31.039Z,0.80
2023-09-19T01:53:13.634Z,1.20
2023-09-19T01:55:44.705Z,0.90
2023-09-19T01:58:18.664Z,0.88
2023-09-19T02:00:45.550Z,0.90
2023-09-19T02:03:12.995Z,0.80
2023-09-19T02:05:39.521Z,0.98
2023-09-19T02:08:06.225Z,0.95
2023-09-19T02:10:32.640Z,0.75
2023-09-19T02:12:59.064Z,0.73
2023-09-19T02:15:25.432Z,1.00
2023-09-19T02:17:51.937Z,0.68
2023-09-19T02:20:18.430Z,0.98
2023-09-19T02:22:44.909Z,0.82
2023-09-19T02:25:11.437Z,0.80
2023-09-19T02:27:37.837Z,0.83
2023-09-19T02:30:05.714Z,0.80
2023-09-19T02:32:32.182Z,0.73
2023-09-19T02:34:58.847Z,0.90
2023-09-19T02:37:25.245Z,0.90
2023-09-19T02:39:51.678Z,0.80
2023-09-19T02:42:18.057Z,1.02
2023-09-19T02:44:44.426Z,1.02
2023-09-19T02:47:10.949Z,0.80
2023-09-19T02:49:37.480Z,1.00
2023-09-19T02:52:04.112Z,0.80
2023-09-19T02:54:30.498Z,0.98
2023-09-19T02:56:56.903Z,1.00
2023-09-19T02:59:23.262Z,1.05
2023-09-19T03:01:49.747Z,0.90
2023-09-19T03:04:16.222Z,0.90
2023-09-19T03:06:42.675Z,1.00
2023-09-19T03:09:09.034Z,0.90
2023-09-19T03:11:35.530Z,1.00
2023-09-19T03:14:01.914Z,1.42
2023-09-19T03:16:28.398Z,1.00
2023-09-19T03:18:54.846Z,1.20
2023-09-19T03:21:21.236Z,0.90
2023-09-19T03:23:47.633Z,0.93
2023-09-19T03:26:14.255Z,0.90
2023-09-19T03:28:40.643Z,1.00
2023-09-19T03:31:07.318Z,0.98
2023-09-19T03:33:34.048Z,0.90
2023-09-19T03:36:02.065Z,0.93
2023-09-19T03:38:28.722Z,1.20
2023-09-19T03:40:55.190Z,1.03
2023-09-19T03:43:21.628Z,0.77
2023-09-19T03:45:48.027Z,1.10
2023-09-19T03:48:14.406Z,0.90
2023-09-19T03:50:40.788Z,0.95
2023-09-19T03:53:07.261Z,1.13
2023-09-19T03:55:34.043Z,1.02
2023-09-19T03:58:00.452Z,1.15
2023-09-19T04:00:26.823Z,1.13
2023-09-19T04:02:53.575Z,1.08
2023-09-19T04:05:20.108Z,1.10
2023-09-19T04:07:46.612Z,1.20
2023-09-19T04:10:13.122Z,1.20
2023-09-19T04:12:39.488Z,1.35
2023-09-19T04:15:06.729Z,1.00
2023-09-19T04:17:33.361Z,0.90
2023-09-19T04:20:00.394Z,0.95
2023-09-19T04:22:26.999Z,1.17
2023-09-19T04:24:53.474Z,1.20
2023-09-19T04:27:19.903Z,1.42
2023-09-19T04:29:46.312Z,1.30
2023-09-19T04:32:12.687Z,0.90
2023-09-19T04:34:39.132Z,1.13
2023-09-19T04:37:05.521Z,1.17
2023-09-19T04:39:31.902Z,0.90
2023-09-19T04:41:58.270Z,1.00
2023-09-19T05:30:27.257Z,1.30
2023-09-19T05:32:54.513Z,1.08
2023-09-19T05:35:21.122Z,1.25
2023-09-19T05:37:47.496Z,1.07
2023-09-19T05:40:13.928Z,1.20
2023-09-19T05:42:40.302Z,1.23
2023-09-19T05:45:07.229Z,1.45
2023-09-19T05:47:33.896Z,1.02
2023-09-19T05:50:00.403Z,1.20
2023-09-19T05:52:26.924Z,1.10
2023-09-19T05:54:53.294Z,1.00
2023-09-19T05:57:19.658Z,0.90
2023-09-19T05:59:46.188Z,1.40
2023-09-19T06:02:12.721Z,1.10
2023-09-19T06:04:39.174Z,1.10
2023-09-19T06:07:05.558Z,1.00
2023-09-19T06:09:31.927Z,1.10
2023-09-19T06:11:58.422Z,1.13
2023-09-19T06:14:24.788Z,1.03
2023-09-19T06:16:51.476Z,0.90
2023-09-19T06:19:17.908Z,1.08
2023-09-19T06:21:44.336Z,1.08
2023-09-19T06:24:10.780Z,1.30
2023-09-19T06:26:37.200Z,1.10
2023-09-19T06:29:03.569Z,1.10
2023-09-19T06:31:30.049Z,1.30
2023-09-19T06:33:56.515Z,1.30
2023-09-19T06:36:22.959Z,0.90
2023-09-19T06:38:49.326Z,1.03
2023-09-19T06:41:15.752Z,1.10
2023-09-19T06:43:42.423Z,1.20
2023-09-19T06:46:09.020Z,1.02
2023-09-19T06:48:35.571Z,1.10
2023-09-19T06:51:01.975Z,1.00
2023-09-19T06:53:28.377Z,0.93
2023-09-19T06:55:54.798Z,1.00
2023-09-19T06:58:21.348Z,1.02
2023-09-19T07:00:47.738Z,1.00
2023-09-19T07:03:15.021Z,1.20
2023-09-19T07:05:41.498Z,1.10
2023-09-19T07:08:08.674Z,1.02
2023-09-19T07:10:35.129Z,1.20
2023-09-19T07:13:02.713Z,1.30
2023-09-19T07:15:30.193Z,1.10
2023-09-19T07:17:56.585Z,1.15
2023-09-19T07:20:24.400Z,1.13
2023-09-19T07:22:50.803Z,1.10
2023-09-19T07:25:17.446Z,1.15
2023-09-19T07:27:44.048Z,1.20
2023-09-19T07:30:11.039Z,1.30
2023-09-19T07:32:37.513Z,1.05
2023-09-19T07:35:06.390Z,1.10
2023-09-19T07:37:33.621Z,1.35
2023-09-19T07:40:00.876Z,1.13
2023-09-19T07:42:27.896Z,1.10
2023-09-19T07:44:54.284Z,1.33
2023-09-19T07:47:23.453Z,1.20
2023-09-19T07:49:49.874Z,0.95
2023-09-19T07:52:16.797Z,0.93
2023-09-19T07:54:44.178Z,1.10
2023-09-19T07:57:12.012Z,1.10
2023-09-19T07:59:38.853Z,1.20
2023-09-19T08:02:05.937Z,0.80
2023-09-19T08:04:32.492Z,1.10
2023-09-19T08:07:00.266Z,1.10
2023-09-19T08:09:26.965Z,1.10
2023-09-19T08:11:53.409Z,1.20
2023-09-19T08:14:19.846Z,1.00
2023-09-19T08:16:46.445Z,0.90
2023-09-19T08:19:12.914Z,1.00
2023-09-19T08:21:39.373Z,0.90
2023-09-19T08:24:05.905Z,0.90
2023-09-19T08:26:32.659Z,1.00
2023-09-19T08:28:59.089Z,1.00
2023-09-19T08:31:25.647Z,1.15
2023-09-19T08:33:52.089Z,0.80
2023-09-19T08:36:18.575Z,0.80
2023-09-19T08:38:44.952Z,1.00
2023-09-19T08:41:11.520Z,0.90
2023-09-19T08:43:38.096Z,1.00
2023-09-19T08:46:12.149Z,1.20
2023-09-19T08:48:42.241Z,0.98
2023-09-19T08:51:12.618Z,1.00
2023-09-19T08:53:52.685Z,1.40
2023-09-19T08:56:19.924Z,0.88
2023-09-19T08:58:52.599Z,0.80
2023-09-19T09:01:19.783Z,0.70
2023-09-19T09:03:49.457Z,0.80
2023-09-19T09:06:16.935Z,0.70
2023-09-19T09:08:44.284Z,0.82
2023-09-19T09:11:12.531Z,0.85
2023-09-19T09:13:41.124Z,0.90
2023-09-19T09:16:08.798Z,0.80
2023-09-19T09:18:35.329Z,0.70
2023-09-19T09:21:01.785Z,0.60
2023-09-19T09:23:28.642Z,0.70
2023-09-19T09:25:56.285Z,0.90
2023-09-19T09:28:27.601Z,1.25
2023-09-19T09:30:54.125Z,1.20
2023-09-19T09:33:20.794Z,0.90
2023-09-19T09:35:54.481Z,0.70
2023-09-19T09:38:22.050Z,0.80
2023-09-19T09:40:52.672Z,0.98
2023-09-19T09:43:35.822Z,1.00
2023-09-19T09:46:16.247Z,0.68
2023-09-19T09:48:42.658Z,0.82
2023-09-19T09:51:09.016Z,0.90
2023-09-19T09:53:35.469Z,0.90
2023-09-19T09:56:08.821Z,1.00
2023-09-19T09:58:39.371Z,0.80
2023-09-19T10:01:05.959Z,1.00
2023-09-19T10:03:36.272Z,0.90
2023-09-19T10:06:02.715Z,0.70
2023-09-19T10:08:29.103Z,0.80
2023-09-19T10:10:55.867Z,0.90
2023-09-19T10:13:23.073Z,0.93
2023-09-19T10:15:50.675Z,0.88
2023-09-19T10:18:21.213Z,0.77
2023-09-19T10:20:47.864Z,0.70
2023-09-19T10:23:14.306Z,0.75
2023-09-19T10:25:42.415Z,0.80
2023-09-19T10:28:12.662Z,0.88
2023-09-19T10:30:42.352Z,0.98
2023-09-19T10:33:09.204Z,0.83
2023-09-19T10:35:39.624Z,0.80
2023-09-19T10:38:07.048Z,1.00
2023-09-19T10:40:36.013Z,1.13
2023-09-19T10:43:06.274Z,0.88
2023-09-19T10:45:34.939Z,0.93
2023-09-19T10:48:02.424Z,0.95
2023-09-19T10:50:31.479Z,1.00
2023-09-19T10:53:01.398Z,0.82
2023-09-19T10:55:29.052Z,0.90
2023-09-19T10:57:55.521Z,0.93
2023-09-19T11:00:22.118Z,0.80
2023-09-19T11:03:13.816Z,0.90
2023-09-19T11:05:41.125Z,0.82
2023-09-19T11:08:11.270Z,1.08
2023-09-19T11:10:50.922Z,0.80
2023-09-19T11:13:27.101Z,0.90
2023-09-19T11:15:59.690Z,0.90
2023-09-19T11:18:46.164Z,1.00
2023-09-19T11:21:27.847Z,0.90
2023-09-19T11:24:16.198Z,1.00
2023-09-19T11:26:43.838Z,1.00
2023-09-19T11:29:31.047Z,1.00
2023-09-19T11:31:58.237Z,1.05
2023-09-19T11:34:36.893Z,0.98
2023-09-19T11:37:12.087Z,0.90
2023-09-19T11:39:38.921Z,0.90
2023-09-19T11:42:43.166Z,1.10
2023-09-19T11:45:41.957Z,0.80
2023-09-19T11:48:09.525Z,0.90
2023-09-19T11:50:36.656Z,0.83
2023-09-19T11:53:03.270Z,1.20
2023-09-19T11:55:30.398Z,1.38
2023-09-19T11:57:57.158Z,1.35
2023-09-19T12:00:23.905Z,1.13
2023-09-19T12:02:52.576Z,1.30
2023-09-19T12:05:29.494Z,1.20
2023-09-19T12:07:55.995Z,1.13
2023-09-19T12:10:22.470Z,1.20
2023-09-19T12:12:49.028Z,1.48
2023-09-19T12:15:15.714Z,1.17
2023-09-19T12:17:42.974Z,1.20
2023-09-19T12:20:09.813Z,1.40
2023-09-19T12:22:45.516Z,1.20
2023-09-19T12:25:12.275Z,1.23
2023-09-19T12:27:45.321Z,1.10
2023-09-19T12:30:24.648Z,1.20
2023-09-19T12:32:53.733Z,1.30
2023-09-19T12:35:33.840Z,2.10
2023-09-19T12:38:00.288Z,1.40
2023-09-19T12:40:29.009Z,1.30
2023-09-19T12:42:56.910Z,1.13
2023-09-19T12:45:23.460Z,1.48
2023-09-19T12:48:27.322Z,1.60
2023-09-19T12:51:08.160Z,1.52
2023-09-19T12:53:43.103Z,1.20
2023-09-19T12:56:17.718Z,1.30
2023-09-19T12:58:54.760Z,1.40
2023-09-19T13:01:21.540Z,1.17
2023-09-19T13:04:21.837Z,1.33
2023-09-19T13:06:49.868Z,1.70
2023-09-19T13:09:20.599Z,1.67
2023-09-19T13:11:47.465Z,1.35
2023-09-19T13:14:23.854Z,1.50
2023-09-19T13:17:03.540Z,1.30
2023-09-19T13:19:49.911Z,1.33
2023-09-19T13:22:38.117Z,1.70
2023-09-19T13:25:06.422Z,1.30
2023-09-19T13:27:33.362Z,1.50
2023-09-19T13:30:00.032Z,1.35
2023-09-19T13:32:26.958Z,1.37
2023-09-19T13:34:53.407Z,1.60
2023-09-19T13:37:19.777Z,1.27
2023-09-19T13:39:46.248Z,1.50
2023-09-19T13:42:12.628Z,1.75
2023-09-19T13:44:39.015Z,1.43
2023-09-19T13:47:05.643Z,1.40
2023-09-19T13:49:32.164Z,1.60
2023-09-19T13:51:58.557Z,1.73
2023-09-19T13:54:24.922Z,1.52
2023-09-19T13:56:51.305Z,1.30
2023-09-19T13:59:17.782Z,1.40
2023-09-19T14:01:44.251Z,1.60
2023-09-19T14:04:10.636Z,1.30
2023-09-19T14:06:37.093Z,1.45
2023-09-19T14:09:03.649Z,1.50
2023-09-19T14:11:30.045Z,1.50
2023-09-19T14:13:57.779Z,1.50
2023-09-19T14:16:24.398Z,1.38
2023-09-19T14:18:50.796Z,1.33
2023-09-19T14:21:17.167Z,1.30
2023-09-19T14:23:43.551Z,1.60
2023-09-19T14:26:10.085Z,1.58
2023-09-19T14:28:36.569Z,1.80
2023-09-19T14:31:07.885Z,1.45
2023-09-19T14:33:34.324Z,1.63
2023-09-19T14:36:07.370Z,1.80
2023-09-19T14:38:34.956Z,1.70
2023-09-19T14:41:02.561Z,1.60
2023-09-19T14:43:30.303Z,1.42
2023-09-19T14:46:06.672Z,2.03
2023-09-19T14:48:33.163Z,1.85
2023-09-19T14:51:03.883Z,2.00
2023-09-19T14:53:30.861Z,1.92
2023-09-19T14:55:57.555Z,1.70
2023-09-19T14:58:24.044Z,1.90
2023-09-19T15:00:50.435Z,1.90
2023-09-19T15:03:17.056Z,1.90
2023-09-19T15:05:43.740Z,1.80
2023-09-19T15:08:10.275Z,1.60
2023-09-19T15:10:36.749Z,1.70
2023-09-19T15:13:03.290Z,1.70
2023-09-19T15:15:29.691Z,1.83
2023-09-19T15:17:56.204Z,2.05
2023-09-19T15:20:22.665Z,2.05
2023-09-19T15:22:49.085Z,1.40
2023-09-19T15:25:15.552Z,1.83
2023-09-19T15:27:41.941Z,1.70
2023-09-19T15:30:08.826Z,1.60
2023-09-19T15:32:35.279Z,1.48
2023-09-19T15:35:01.713Z,1.57
2023-09-19T15:37:28.209Z,2.08
2023-09-19T15:39:54.567Z,2.00
2023-09-19T15:42:20.938Z,1.85
2023-09-19T15:44:50.384Z,1.63
2023-09-19T15:47:16.818Z,1.80
2023-09-19T15:49:44.229Z,1.90
2023-09-19T15:52:10.625Z,1.77
2023-09-19T15:54:38.777Z,2.00
2023-09-19T15:57:05.263Z,1.77
2023-09-19T15:59:31.672Z,1.57
2023-09-19T16:01:58.389Z,1.58
2023-09-19T16:04:24.827Z,1.65
2023-09-19T16:06:51.963Z,2.00
2023-09-19T16:09:19.456Z,1.67
2023-09-19T16:11:45.848Z,1.80
2023-09-19T16:14:13.072Z,1.63
2023-09-19T16:16:41.085Z,2.10
2023-09-19T16:19:07.530Z,1.85
2023-09-19T16:21:34.338Z,1.80
2023-09-19T16:24:01.065Z,1.73
2023-09-19T16:26:28.846Z,1.60
2023-09-19T16:28:56.690Z,2.00
2023-09-19T16:31:23.169Z,1.60
2023-09-19T16:33:49.798Z,2.00
2023-09-19T16:36:20.048Z,1.73
2023-09-19T16:38:47.932Z,1.73
2023-09-19T16:41:14.974Z,1.98
2023-09-19T16:43:42.009Z,1.52
2023-09-19T16:46:09.353Z,1.70
2023-09-19T16:48:43.829Z,1.70
2023-09-19T16:51:18.490Z,1.52
2023-09-19T16:53:45.301Z,1.60
2023-09-19T16:56:13.737Z,1.70
2023-09-19T16:58:43.023Z,1.50
2023-09-19T17:01:18.706Z,1.87
2023-09-19T17:03:45.456Z,1.50
2023-09-19T17:06:14.184Z,1.60
2023-09-19T17:08:41.173Z,1.90
2023-09-19T17:11:12.653Z,1.63
2023-09-19T17:13:42.336Z,2.03
2023-09-19T17:16:10.825Z,1.50
2023-09-19T17:18:41.234Z,1.75
2023-09-19T17:21:09.665Z,1.40
2023-09-19T17:23:36.058Z,1.48
2023-09-19T17:26:03.389Z,1.30
2023-09-19T17:28:30.892Z,1.70
2023-09-19T17:30:58.187Z,1.80
2023-09-19T17:33:28.734Z,1.40
2023-09-19T17:36:14.381Z,1.85
2023-09-19T17:38:41.960Z,1.43
2023-09-19T17:41:08.847Z,1.55
2023-09-19T17:43:38.717Z,1.48
2023-09-19T17:46:12.775Z,1.50
2023-09-19T17:48:44.701Z,1.50
2023-09-19T17:51:14.294Z,1.50
2023-09-19T17:53:42.171Z,1.75
2023-09-19T17:56:10.432Z,1.73
2023-09-19T17:58:40.692Z,1.75
2023-09-19T18:01:14.129Z,1.58
2023-09-19T18:03:41.536Z,1.63
2023-09-19T18:06:08.146Z,1.52
2023-09-19T18:08:35.095Z,1.75
2023-09-19T18:11:02.865Z,1.33
2023-09-19T18:13:29.476Z,1.58
2023-09-19T18:15:58.809Z,1.57
2023-09-19T18:18:28.776Z,1.70
2023-09-19T18:20:55.170Z,1.75
2023-09-19T18:23:21.597Z,1.50
2023-09-19T18:25:48.052Z,1.60
2023-09-19T18:28:14.422Z,1.53
2023-09-19T18:30:40.808Z,1.50
2023-09-19T18:33:07.265Z,1.80
2023-09-19T18:35:33.653Z,1.85
2023-09-19T18:38:00.076Z,1.60
2023-09-19T18:40:26.487Z,1.50
2023-09-19T18:42:52.871Z,1.52
2023-09-19T18:45:30.680Z,1.40
2023-09-19T18:48:06.218Z,1.48
2023-09-19T18:50:32.676Z,1.50
2023-09-19T18:52:59.101Z,1.60
2023-09-19T18:55:25.499Z,1.60
2023-09-19T18:57:52.789Z,1.63
2023-09-19T19:00:19.260Z,1.50
2023-09-19T19:02:45.679Z,1.70
2023-09-19T19:05:12.116Z,1.50
2023-09-19T19:07:38.929Z,1.77
2023-09-19T19:10:06.052Z,1.70
2023-09-19T19:12:33.217Z,1.40
2023-09-19T19:14:59.865Z,1.83
2023-09-19T19:17:26.339Z,1.70
2023-09-19T19:19:52.873Z,1.75
2023-09-19T19:22:19.289Z,1.30
2023-09-19T19:24:45.679Z,1.60
2023-09-19T19:27:12.038Z,1.30
2023-09-19T19:29:38.407Z,1.60
2023-09-19T19:32:05.024Z,1.60
2023-09-19T19:34:31.467Z,1.58
2023-09-19T19:36:57.869Z,1.60
2023-09-19T19:39:24.280Z,1.30
2023-09-19T19:41:50.716Z,1.50
2023-09-19T19:44:17.164Z,1.30
2023-09-19T19:46:43.621Z,1.50
2023-09-19T19:49:10.167Z,1.70
2023-09-19T19:51:38.627Z,1.75
2023-09-19T19:54:05.215Z,1.60
2023-09-19T19:56:31.937Z,1.77
2023-09-19T19:58:58.838Z,1.60
2023-09-19T20:01:25.684Z,1.60
2023-09-19T20:03:52.265Z,1.40
2023-09-19T20:06:18.710Z,1.33
2023-09-19T20:08:45.085Z,1.23
2023-09-19T20:11:11.568Z,1.33
2023-09-19T20:13:38.727Z,1.83
2023-09-19T20:16:06.487Z,1.50
2023-09-19T20:18:33.083Z,1.60
2023-09-19T20:21:08.585Z,1.65
2023-09-19T20:23:34.948Z,1.77
2023-09-19T20:26:02.117Z,1.50
2023-09-19T20:28:28.515Z,1.33
2023-09-19T20:30:55.033Z,1.33
2023-09-19T20:33:24.379Z,1.58
2023-09-19T20:35:50.759Z,1.52
2023-09-19T20:38:17.186Z,1.42
2023-09-19T20:40:43.631Z,1.40
2023-09-19T20:43:10.476Z,1.30
2023-09-19T20:45:36.841Z,1.50
2023-09-19T20:48:03.570Z,1.30
2023-09-19T20:50:30.141Z,1.42
2023-09-19T20:52:56.604Z,1.20
2023-09-19T20:55:23.204Z,1.30
2023-09-19T20:57:49.565Z,1.35
2023-09-19T21:00:16.124Z,1.25
2023-09-19T21:02:42.524Z,1.40
2023-09-19T21:05:09.478Z,1.00
2023-09-19T21:07:35.939Z,1.20
2023-09-19T21:10:02.327Z,1.30
2023-09-19T21:12:28.717Z,1.30
2023-09-19T21:14:55.197Z,1.23
2023-09-19T21:17:21.714Z,1.20
2023-09-19T21:19:48.345Z,1.10
2023-09-19T21:22:14.868Z,1.20
2023-09-19T21:24:41.244Z,1.20
2023-09-19T21:27:07.626Z,1.20
2023-09-19T21:29:34.870Z,1.33
2023-09-19T21:32:01.915Z,1.07
2023-09-19T21:34:28.321Z,1.10
2023-09-19T21:36:54.766Z,1.10
2023-09-19T21:39:21.319Z,1.13
2023-09-19T21:41:47.680Z,1.20
2023-09-19T21:44:14.070Z,1.00
2023-09-19T21:46:40.623Z,0.90
2023-09-19T21:49:07.140Z,1.30
2023-09-19T21:51:33.503Z,1.45
2023-09-19T21:53:59.981Z,1.20
2023-09-19T21:56:26.362Z,1.23
2023-09-19T21:58:52.795Z,1.00
2023-09-19T22:01:19.331Z,1.05
2023-09-19T22:03:45.832Z,1.30
2023-09-19T22:06:12.765Z,1.52
2023-09-19T22:08:40.035Z,1.20
2023-09-19T22:11:07.416Z,1.42
2023-09-19T22:13:33.886Z,1.20
2023-09-19T22:16:01.058Z,1.10
2023-09-19T22:18:27.842Z,1.20
2023-09-19T22:20:55.367Z,1.20
2023-09-19T22:23:21.877Z,1.30
2023-09-19T22:25:48.309Z,1.20
2023-09-19T22:28:14.700Z,1.20
2023-09-19T22:30:41.121Z,1.00
2023-09-19T22:33:08.889Z,1.20
2023-09-19T22:35:35.271Z,1.33
2023-09-19T22:38:13.896Z,1.20
2023-09-19T22:40:41.628Z,1.08
2023-09-19T22:43:07.980Z,1.30
2023-09-19T22:45:34.371Z,1.10
2023-09-19T22:48:01.739Z,1.00
2023-09-19T22:50:28.205Z,1.00
2023-09-19T22:52:54.608Z,1.20
2023-09-19T22:55:24.051Z,1.13
2023-09-19T22:57:53.354Z,1.00
2023-09-19T23:00:19.789Z,1.25
2023-09-19T23:02:46.291Z,1.00
2023-09-19T23:05:12.835Z,1.15
2023-09-19T23:07:39.307Z,1.15
2023-09-19T23:10:06.224Z,1.03
2023-09-19T23:12:32.588Z,0.98
2023-09-19T23:14:58.970Z,1.00
2023-09-19T23:17:25.378Z,0.93
2023-09-19T23:19:51.884Z,1.10
2023-09-19T23:22:18.455Z,1.17
2023-09-19T23:24:45.577Z,0.90
2023-09-19T23:27:11.963Z,1.10
2023-09-19T23:29:38.402Z,1.55
2023-09-19T23:32:05.254Z,1.05
2023-09-19T23:34:31.634Z,0.90
2023-09-19T23:36:58.039Z,1.17
2023-09-19T23:39:24.387Z,0.98
2023-09-19T23:41:50.759Z,0.90
2023-09-19T23:44:17.148Z,0.95
2023-09-19T23:46:43.541Z,0.93
2023-09-19T23:49:10.235Z,1.00
2023-09-19T23:51:36.596Z,1.20
2023-09-19T23:54:06.455Z,1.15
2023-09-19T23:56:32.826Z,0.90
2023-09-19T23:58:59.250Z,1.00
